KMVN/MVN METAR and TAF weather

Enter ICAO airport designator
Station Type Date Time Source
KMVN METAR 2022/11/30 10:56 UTC NOAA

KMVN 301056Z AUTO 31008G17KT 280V350 10SM CLR M02/M08 A3012 RMK AO2 SLP206 T10171078 FZRANO


Station Type Date Time Source
KMVN Decoded METAR 2022/11/30 10:56 UTC NOAA

Mount Vernon, Mount Vernon Airport, IL, United States (KMVN) 38-19N 088-52W
Nov 30, 2022 - 05:56 AM EST / 2022.11.30 1056 UTC
Wind: from the NW (310 degrees) at 9 MPH (8 KT) gusting to 20 MPH (17 KT) (direction variable):0
Visibility: 10 mile(s):0
Sky conditions: clear
Temperature: 28.9 F (-1.7 C)
Windchill: 21 F (-6 C):1
Dew Point: 18.0 F (-7.8 C)
Relative Humidity: 63%
Pressure (altimeter): 30.12 in. Hg (1019 hPa)
ob: KMVN 301056Z AUTO 31008G17KT 280V350 10SM CLR M02/M08 A3012 RMK AO2 SLP206 T10171078 FZRANO
cycle: 11

Station Type Date Time Source
KMVN TAF 2022/11/30 12:21 UTC NOAA

TAF KMVN 301120Z 3012/0112 29012G20KT P6SM SKC
FM302200 27006KT P6SM SKC
FM010000 VRB03KT P6SM SCT250

Example: see airport list